sensor_id;sensor_type;location;lat;lon;timestamp;P1;durP1;ratioP1;P2;durP2;ratioP2
79025;SDS011;71097;44.760;37.726;2023-11-18T00:09:17;8.05;;;5.53;;
79025;SDS011;71097;44.760;37.726;2023-11-18T00:12:31;8.25;;;4.88;;
79025;SDS011;71097;44.760;37.726;2023-11-18T00:14:20;11.07;;;6.05;;
79025;SDS011;71097;44.760;37.726;2023-11-18T00:15:44;7.53;;;5.20;;
79025;SDS011;71097;44.760;37.726;2023-11-18T00:17:11;12.40;;;7.05;;
79025;SDS011;71097;44.760;37.726;2023-11-18T00:18:21;8.40;;;5.28;;
79025;SDS011;71097;44.760;37.726;2023-11-18T00:19:23;9.77;;;5.60;;
79025;SDS011;71097;44.760;37.726;2023-11-18T00:20:25;10.10;;;4.70;;
79025;SDS011;71097;44.760;37.726;2023-11-18T00:21:39;8.85;;;5.43;;
79025;SDS011;71097;44.760;37.726;2023-11-18T00:22:40;9.70;;;5.35;;
79025;SDS011;71097;44.760;37.726;2023-11-18T00:23:56;8.88;;;5.18;;
79025;SDS011;71097;44.760;37.726;2023-11-18T00:25:03;11.15;;;5.60;;
79025;SDS011;71097;44.760;37.726;2023-11-18T00:26:33;10.88;;;5.93;;
79025;SDS011;71097;44.760;37.726;2023-11-18T00:27:51;8.77;;;4.80;;
79025;SDS011;71097;44.760;37.726;2023-11-18T00:29:00;8.90;;;5.25;;
79025;SDS011;71097;44.760;37.726;2023-11-18T00:30:05;9.52;;;6.05;;
79025;SDS011;71097;44.760;37.726;2023-11-18T00:31:12;8.45;;;5.10;;
79025;SDS011;71097;44.760;37.726;2023-11-18T00:32:13;8.35;;;4.57;;
79025;SDS011;71097;44.760;37.726;2023-11-18T00:33:23;7.35;;;4.57;;
79025;SDS011;71097;44.760;37.726;2023-11-18T00:34:28;7.55;;;4.75;;
79025;SDS011;71097;44.760;37.726;2023-11-18T00:35:30;10.20;;;5.40;;
79025;SDS011;71097;44.760;37.726;2023-11-18T00:36:35;9.50;;;4.90;;
79025;SDS011;71097;44.760;37.726;2023-11-18T00:37:40;8.02;;;4.85;;
79025;SDS011;71097;44.760;37.726;2023-11-18T00:38:42;7.40;;;4.28;;
79025;SDS011;71097;44.760;37.726;2023-11-18T00:39:55;7.88;;;4.90;;
79025;SDS011;71097;44.760;37.726;2023-11-18T00:41:02;7.57;;;5.28;;
79025;SDS011;71097;44.760;37.726;2023-11-18T00:42:03;8.68;;;3.83;;
79025;SDS011;71097;44.760;37.726;2023-11-18T00:43:08;9.18;;;5.50;;
79025;SDS011;71097;44.760;37.726;2023-11-18T00:44:13;9.38;;;4.93;;
79025;SDS011;71097;44.760;37.726;2023-11-18T00:45:15;6.82;;;3.50;;
79025;SDS011;71097;44.760;37.726;2023-11-18T00:46:20;9.98;;;4.20;;
79025;SDS011;71097;44.760;37.726;2023-11-18T00:47:24;7.97;;;3.80;;
79025;SDS011;71097;44.760;37.726;2023-11-18T00:48:29;7.32;;;4.35;;
79025;SDS011;71097;44.760;37.726;2023-11-18T00:49:35;7.93;;;4.60;;
79025;SDS011;71097;44.760;37.726;2023-11-18T08:01:08;8.55;;;3.25;;
79025;SDS011;71097;44.760;37.726;2023-11-18T08:02:11;4.38;;;2.30;;
79025;SDS011;71097;44.760;37.726;2023-11-18T08:03:15;5.68;;;2.38;;
79025;SDS011;71097;44.760;37.726;2023-11-18T08:04:17;5.00;;;1.85;;
79025;SDS011;71097;44.760;37.726;2023-11-18T08:05:21;4.63;;;2.08;;
79025;SDS011;71097;44.760;37.726;2023-11-18T08:06:23;4.57;;;1.92;;
79025;SDS011;71097;44.760;37.726;2023-11-18T08:07:27;5.68;;;2.28;;
79025;SDS011;71097;44.760;37.726;2023-11-18T08:08:29;5.25;;;2.33;;
79025;SDS011;71097;44.760;37.726;2023-11-18T08:09:30;5.53;;;2.40;;
79025;SDS011;71097;44.760;37.726;2023-11-18T08:10:33;4.47;;;2.40;;
79025;SDS011;71097;44.760;37.726;2023-11-18T08:11:38;5.45;;;2.30;;
79025;SDS011;71097;44.760;37.726;2023-11-18T08:12:42;5.82;;;2.00;;
79025;SDS011;71097;44.760;37.726;2023-11-18T08:13:44;6.05;;;2.25;;
79025;SDS011;71097;44.760;37.726;2023-11-18T08:14:45;5.05;;;2.00;;
79025;SDS011;71097;44.760;37.726;2023-11-18T08:15:48;6.35;;;2.17;;
79025;SDS011;71097;44.760;37.726;2023-11-18T08:16:49;6.03;;;2.08;;
79025;SDS011;71097;44.760;37.726;2023-11-18T08:17:52;5.22;;;2.10;;
79025;SDS011;71097;44.760;37.726;2023-11-18T08:18:54;5.35;;;2.47;;
79025;SDS011;71097;44.760;37.726;2023-11-18T08:19:56;2.92;;;1.85;;
79025;SDS011;71097;44.760;37.726;2023-11-18T08:20:58;4.40;;;2.17;;
79025;SDS011;71097;44.760;37.726;2023-11-18T08:22:00;4.57;;;2.22;;
79025;SDS011;71097;44.760;37.726;2023-11-18T08:23:02;4.22;;;2.30;;
79025;SDS011;71097;44.760;37.726;2023-11-18T08:24:06;4.03;;;2.05;;
79025;SDS011;71097;44.760;37.726;2023-11-18T08:25:09;5.80;;;2.50;;
79025;SDS011;71097;44.760;37.726;2023-11-18T08:26:11;3.47;;;1.80;;
79025;SDS011;71097;44.760;37.726;2023-11-18T08:27:13;4.40;;;1.98;;
79025;SDS011;71097;44.760;37.726;2023-11-18T08:28:14;5.10;;;2.10;;
79025;SDS011;71097;44.760;37.726;2023-11-18T08:29:17;6.00;;;2.05;;
79025;SDS011;71097;44.760;37.726;2023-11-18T08:30:18;7.00;;;2.00;;
79025;SDS011;71097;44.760;37.726;2023-11-18T08:31:22;7.57;;;2.10;;
79025;SDS011;71097;44.760;37.726;2023-11-18T08:32:23;6.30;;;2.15;;
79025;SDS011;71097;44.760;37.726;2023-11-18T08:33:25;5.82;;;1.70;;
79025;SDS011;71097;44.760;37.726;2023-11-18T08:34:30;5.55;;;2.22;;
79025;SDS011;71097;44.760;37.726;2023-11-18T08:35:31;5.80;;;2.83;;
79025;SDS011;71097;44.760;37.726;2023-11-18T08:36:33;5.55;;;2.78;;
79025;SDS011;71097;44.760;37.726;2023-11-18T08:37:35;6.80;;;3.08;;
79025;SDS011;71097;44.760;37.726;2023-11-18T08:38:38;6.78;;;2.50;;
79025;SDS011;71097;44.760;37.726;2023-11-18T08:39:41;5.47;;;2.47;;
79025;SDS011;71097;44.760;37.726;2023-11-18T08:40:42;4.50;;;2.00;;
79025;SDS011;71097;44.760;37.726;2023-11-18T08:41:46;7.45;;;2.22;;
79025;SDS011;71097;44.760;37.726;2023-11-18T08:42:51;4.32;;;1.98;;
79025;SDS011;71097;44.760;37.726;2023-11-18T08:43:56;5.75;;;2.35;;
79025;SDS011;71097;44.760;37.726;2023-11-18T08:44:58;4.88;;;2.28;;
79025;SDS011;71097;44.760;37.726;2023-11-18T08:46:00;5.65;;;2.45;;
79025;SDS011;71097;44.760;37.726;2023-11-18T08:47:02;5.45;;;2.25;;
79025;SDS011;71097;44.760;37.726;2023-11-18T08:48:09;5.03;;;2.30;;
79025;SDS011;71097;44.760;37.726;2023-11-18T08:49:11;3.75;;;1.92;;
79025;SDS011;71097;44.760;37.726;2023-11-18T08:50:14;3.72;;;1.90;;
79025;SDS011;71097;44.760;37.726;2023-11-18T08:51:17;5.53;;;2.10;;
79025;SDS011;71097;44.760;37.726;2023-11-18T08:52:18;9.05;;;2.38;;
79025;SDS011;71097;44.760;37.726;2023-11-18T08:53:20;4.07;;;1.77;;
79025;SDS011;71097;44.760;37.726;2023-11-18T08:54:26;4.18;;;2.10;;
79025;SDS011;71097;44.760;37.726;2023-11-18T08:55:37;3.45;;;1.92;;
79025;SDS011;71097;44.760;37.726;2023-11-18T08:56:51;4.97;;;2.40;;
79025;SDS011;71097;44.760;37.726;2023-11-18T08:57:53;4.55;;;1.77;;
79025;SDS011;71097;44.760;37.726;2023-11-18T08:59:00;5.97;;;2.35;;
79025;SDS011;71097;44.760;37.726;2023-11-18T09:00:03;5.45;;;2.38;;
79025;SDS011;71097;44.760;37.726;2023-11-18T09:01:09;7.75;;;2.33;;
79025;SDS011;71097;44.760;37.726;2023-11-18T09:02:14;6.88;;;2.53;;
79025;SDS011;71097;44.760;37.726;2023-11-18T09:03:24;6.25;;;2.42;;
79025;SDS011;71097;44.760;37.726;2023-11-18T09:04:28;6.07;;;2.95;;
79025;SDS011;71097;44.760;37.726;2023-11-18T09:05:33;5.32;;;2.97;;
79025;SDS011;71097;44.760;37.726;2023-11-18T09:06:36;6.30;;;2.45;;
79025;SDS011;71097;44.760;37.726;2023-11-18T09:08:46;4.13;;;1.80;;
79025;SDS011;71097;44.760;37.726;2023-11-18T09:09:53;5.00;;;2.33;;
79025;SDS011;71097;44.760;37.726;2023-11-18T09:10:55;7.30;;;2.67;;
79025;SDS011;71097;44.760;37.726;2023-11-18T09:11:57;4.95;;;2.67;;
79025;SDS011;71097;44.760;37.726;2023-11-18T09:12:59;7.00;;;2.97;;
79025;SDS011;71097;44.760;37.726;2023-11-18T09:14:01;5.25;;;2.90;;
79025;SDS011;71097;44.760;37.726;2023-11-18T09:15:07;7.85;;;3.05;;
79025;SDS011;71097;44.760;37.726;2023-11-18T09:16:09;4.95;;;2.72;;
79025;SDS011;71097;44.760;37.726;2023-11-18T09:17:12;5.18;;;2.70;;
79025;SDS011;71097;44.760;37.726;2023-11-18T09:18:13;5.22;;;3.00;;
79025;SDS011;71097;44.760;37.726;2023-11-18T09:19:14;6.93;;;2.80;;
79025;SDS011;71097;44.760;37.726;2023-11-18T09:20:16;4.75;;;2.00;;
79025;SDS011;71097;44.760;37.726;2023-11-18T09:21:21;7.65;;;2.90;;
79025;SDS011;71097;44.760;37.726;2023-11-18T09:22:30;6.60;;;2.80;;
79025;SDS011;71097;44.760;37.726;2023-11-18T09:23:32;5.95;;;2.28;;
79025;SDS011;71097;44.760;37.726;2023-11-18T09:24:38;6.35;;;3.28;;
79025;SDS011;71097;44.760;37.726;2023-11-18T09:25:40;4.55;;;2.85;;
79025;SDS011;71097;44.760;37.726;2023-11-18T09:26:41;6.82;;;3.28;;
79025;SDS011;71097;44.760;37.726;2023-11-18T09:27:45;5.57;;;3.05;;
79025;SDS011;71097;44.760;37.726;2023-11-18T09:28:46;7.10;;;3.08;;
79025;SDS011;71097;44.760;37.726;2023-11-18T09:29:50;5.00;;;2.72;;
79025;SDS011;71097;44.760;37.726;2023-11-18T09:30:52;7.10;;;3.70;;
79025;SDS011;71097;44.760;37.726;2023-11-18T09:31:58;5.30;;;3.72;;
79025;SDS011;71097;44.760;37.726;2023-11-18T09:33:00;6.28;;;3.72;;
79025;SDS011;71097;44.760;37.726;2023-11-18T09:34:03;7.35;;;4.05;;
79025;SDS011;71097;44.760;37.726;2023-11-18T09:35:10;6.32;;;4.13;;
79025;SDS011;71097;44.760;37.726;2023-11-18T09:36:13;7.07;;;3.65;;
79025;SDS011;71097;44.760;37.726;2023-11-18T09:37:15;5.38;;;3.25;;
79025;SDS011;71097;44.760;37.726;2023-11-18T09:38:17;5.50;;;3.30;;
79025;SDS011;71097;44.760;37.726;2023-11-18T09:39:18;4.65;;;2.83;;
79025;SDS011;71097;44.760;37.726;2023-11-18T09:40:38;6.25;;;3.45;;
79025;SDS011;71097;44.760;37.726;2023-11-18T09:41:44;7.30;;;4.70;;
79025;SDS011;71097;44.760;37.726;2023-11-18T09:42:45;6.22;;;3.85;;
79025;SDS011;71097;44.760;37.726;2023-11-18T09:43:47;7.00;;;4.10;;
79025;SDS011;71097;44.760;37.726;2023-11-18T09:44:49;6.50;;;3.20;;
79025;SDS011;71097;44.760;37.726;2023-11-18T09:45:54;5.32;;;3.42;;
79025;SDS011;71097;44.760;37.726;2023-11-18T09:46:57;6.18;;;3.58;;
79025;SDS011;71097;44.760;37.726;2023-11-18T09:48:10;5.97;;;3.30;;
79025;SDS011;71097;44.760;37.726;2023-11-18T09:50:34;5.05;;;3.10;;
79025;SDS011;71097;44.760;37.726;2023-11-18T09:51:39;6.47;;;3.45;;
79025;SDS011;71097;44.760;37.726;2023-11-18T09:52:49;5.20;;;3.40;;
79025;SDS011;71097;44.760;37.726;2023-11-18T09:54:01;6.32;;;3.38;;
79025;SDS011;71097;44.760;37.726;2023-11-18T09:55:09;6.90;;;3.45;;
79025;SDS011;71097;44.760;37.726;2023-11-18T09:57:48;4.03;;;2.33;;
79025;SDS011;71097;44.760;37.726;2023-11-18T09:59:02;4.82;;;3.13;;
79025;SDS011;71097;44.760;37.726;2023-11-18T10:00:16;4.22;;;2.35;;
79025;SDS011;71097;44.760;37.726;2023-11-18T10:01:27;4.97;;;2.60;;
79025;SDS011;71097;44.760;37.726;2023-11-18T10:02:33;8.20;;;3.72;;
79025;SDS011;71097;44.760;37.726;2023-11-18T10:03:35;5.90;;;3.35;;
79025;SDS011;71097;44.760;37.726;2023-11-18T10:04:38;6.70;;;3.45;;
79025;SDS011;71097;44.760;37.726;2023-11-18T10:05:40;5.45;;;3.28;;
79025;SDS011;71097;44.760;37.726;2023-11-18T10:06:43;5.32;;;3.05;;
79025;SDS011;71097;44.760;37.726;2023-11-18T10:07:47;6.18;;;2.92;;
79025;SDS011;71097;44.760;37.726;2023-11-18T10:08:50;6.25;;;3.15;;
79025;SDS011;71097;44.760;37.726;2023-11-18T10:09:54;9.23;;;3.40;;
79025;SDS011;71097;44.760;37.726;2023-11-18T10:10:58;6.00;;;2.78;;
79025;SDS011;71097;44.760;37.726;2023-11-18T10:12:09;6.93;;;3.95;;
79025;SDS011;71097;44.760;37.726;2023-11-18T10:13:13;6.65;;;3.80;;
79025;SDS011;71097;44.760;37.726;2023-11-18T10:14:24;6.22;;;3.40;;
79025;SDS011;71097;44.760;37.726;2023-11-18T10:15:25;5.82;;;3.45;;
79025;SDS011;71097;44.760;37.726;2023-11-18T10:16:28;5.97;;;3.08;;
79025;SDS011;71097;44.760;37.726;2023-11-18T10:17:32;6.63;;;3.85;;
79025;SDS011;71097;44.760;37.726;2023-11-18T10:18:34;6.07;;;4.00;;
79025;SDS011;71097;44.760;37.726;2023-11-18T10:20:59;6.80;;;3.83;;
79025;SDS011;71097;44.760;37.726;2023-11-18T10:22:01;7.78;;;3.47;;
79025;SDS011;71097;44.760;37.726;2023-11-18T10:23:05;6.75;;;3.10;;
79025;SDS011;71097;44.760;37.726;2023-11-18T10:24:11;5.68;;;3.38;;
79025;SDS011;71097;44.760;37.726;2023-11-18T10:25:27;4.47;;;2.92;;
79025;SDS011;71097;44.760;37.726;2023-11-18T10:26:28;5.55;;;3.40;;
79025;SDS011;71097;44.760;37.726;2023-11-18T10:27:32;6.93;;;3.35;;
79025;SDS011;71097;44.760;37.726;2023-11-18T10:28:35;8.13;;;3.90;;
79025;SDS011;71097;44.760;37.726;2023-11-18T10:29:38;5.00;;;3.15;;
79025;SDS011;71097;44.760;37.726;2023-11-18T10:30:43;7.72;;;3.50;;
79025;SDS011;71097;44.760;37.726;2023-11-18T10:31:47;7.43;;;3.22;;
79025;SDS011;71097;44.760;37.726;2023-11-18T10:32:56;5.78;;;3.45;;
79025;SDS011;71097;44.760;37.726;2023-11-18T10:34:06;6.72;;;3.60;;
79025;SDS011;71097;44.760;37.726;2023-11-18T10:35:08;6.85;;;3.70;;
79025;SDS011;71097;44.760;37.726;2023-11-18T10:36:21;6.43;;;3.65;;
79025;SDS011;71097;44.760;37.726;2023-11-18T10:37:27;6.65;;;3.00;;
79025;SDS011;71097;44.760;37.726;2023-11-18T10:38:32;6.75;;;3.20;;
79025;SDS011;71097;44.760;37.726;2023-11-18T10:39:47;6.55;;;4.00;;
79025;SDS011;71097;44.760;37.726;2023-11-18T10:40:55;7.03;;;3.15;;
79025;SDS011;71097;44.760;37.726;2023-11-18T10:42:03;5.40;;;3.30;;
79025;SDS011;71097;44.760;37.726;2023-11-18T10:43:06;5.78;;;3.28;;
79025;SDS011;71097;44.760;37.726;2023-11-18T10:44:10;6.80;;;3.63;;
79025;SDS011;71097;44.760;37.726;2023-11-18T10:45:24;5.75;;;3.08;;
79025;SDS011;71097;44.760;37.726;2023-11-18T10:46:28;6.18;;;2.80;;
79025;SDS011;71097;44.760;37.726;2023-11-18T10:47:34;6.35;;;3.25;;
79025;SDS011;71097;44.760;37.726;2023-11-18T10:48:45;5.07;;;3.10;;
79025;SDS011;71097;44.760;37.726;2023-11-18T10:49:50;5.25;;;2.80;;
79025;SDS011;71097;44.760;37.726;2023-11-18T10:51:55;6.45;;;3.17;;
79025;SDS011;71097;44.760;37.726;2023-11-18T10:53:00;7.38;;;3.20;;
79025;SDS011;71097;44.760;37.726;2023-11-18T10:54:02;5.95;;;3.42;;
79025;SDS011;71097;44.760;37.726;2023-11-18T10:55:14;5.97;;;3.25;;
79025;SDS011;71097;44.760;37.726;2023-11-18T10:56:20;6.05;;;3.53;;
79025;SDS011;71097;44.760;37.726;2023-11-18T10:57:30;6.60;;;3.45;;
79025;SDS011;71097;44.760;37.726;2023-11-18T10:58:35;7.95;;;4.10;;
79025;SDS011;71097;44.760;37.726;2023-11-18T11:01:13;6.57;;;3.28;;
79025;SDS011;71097;44.760;37.726;2023-11-18T11:02:19;7.45;;;3.80;;
79025;SDS011;71097;44.760;37.726;2023-11-18T11:03:24;5.97;;;3.20;;
79025;SDS011;71097;44.760;37.726;2023-11-18T11:04:26;8.57;;;3.22;;
79025;SDS011;71097;44.760;37.726;2023-11-18T11:05:28;7.22;;;3.38;;
79025;SDS011;71097;44.760;37.726;2023-11-18T11:06:33;6.72;;;3.67;;
79025;SDS011;71097;44.760;37.726;2023-11-18T11:07:35;6.53;;;3.45;;
79025;SDS011;71097;44.760;37.726;2023-11-18T11:08:38;7.40;;;3.97;;
79025;SDS011;71097;44.760;37.726;2023-11-18T11:09:40;7.70;;;3.83;;
79025;SDS011;71097;44.760;37.726;2023-11-18T11:10:46;5.75;;;3.25;;
79025;SDS011;71097;44.760;37.726;2023-11-18T11:11:54;7.25;;;3.90;;
79025;SDS011;71097;44.760;37.726;2023-11-18T11:13:04;6.07;;;4.22;;
79025;SDS011;71097;44.760;37.726;2023-11-18T11:14:08;6.15;;;4.43;;
79025;SDS011;71097;44.760;37.726;2023-11-18T11:15:18;6.97;;;3.80;;
79025;SDS011;71097;44.760;37.726;2023-11-18T11:16:34;6.20;;;3.22;;
79025;SDS011;71097;44.760;37.726;2023-11-18T11:17:44;6.53;;;2.75;;
79025;SDS011;71097;44.760;37.726;2023-11-18T11:18:55;6.93;;;3.03;;
79025;SDS011;71097;44.760;37.726;2023-11-18T11:20:09;5.82;;;3.05;;
79025;SDS011;71097;44.760;37.726;2023-11-18T11:21:28;5.32;;;2.97;;
79025;SDS011;71097;44.760;37.726;2023-11-18T11:22:39;9.10;;;3.25;;
79025;SDS011;71097;44.760;37.726;2023-11-18T11:24:16;6.25;;;3.22;;
79025;SDS011;71097;44.760;37.726;2023-11-18T11:28:24;4.97;;;2.90;;
79025;SDS011;71097;44.760;37.726;2023-11-18T11:30:20;5.15;;;3.40;;
79025;SDS011;71097;44.760;37.726;2023-11-18T11:31:40;5.43;;;2.65;;
79025;SDS011;71097;44.760;37.726;2023-11-18T11:32:45;6.80;;;3.20;;
79025;SDS011;71097;44.760;37.726;2023-11-18T11:34:04;4.72;;;2.70;;
79025;SDS011;71097;44.760;37.726;2023-11-18T11:36:44;5.80;;;2.63;;
79025;SDS011;71097;44.760;37.726;2023-11-18T11:37:52;11.38;;;3.22;;
79025;SDS011;71097;44.760;37.726;2023-11-18T11:39:03;7.07;;;3.47;;
79025;SDS011;71097;44.760;37.726;2023-11-18T11:41:11;5.75;;;3.50;;
79025;SDS011;71097;44.760;37.726;2023-11-18T11:42:20;6.70;;;3.80;;
79025;SDS011;71097;44.760;37.726;2023-11-18T11:44:28;6.30;;;2.38;;
79025;SDS011;71097;44.760;37.726;2023-11-18T11:45:31;6.10;;;3.30;;
79025;SDS011;71097;44.760;37.726;2023-11-18T11:46:32;4.65;;;2.10;;
79025;SDS011;71097;44.760;37.726;2023-11-18T11:47:36;7.10;;;3.53;;
79025;SDS011;71097;44.760;37.726;2023-11-18T11:48:44;8.57;;;5.03;;
79025;SDS011;71097;44.760;37.726;2023-11-18T11:49:52;7.53;;;3.53;;
79025;SDS011;71097;44.760;37.726;2023-11-18T11:51:16;6.43;;;3.35;;
79025;SDS011;71097;44.760;37.726;2023-11-18T11:52:32;6.18;;;3.47;;
79025;SDS011;71097;44.760;37.726;2023-11-18T11:53:38;5.45;;;3.15;;
79025;SDS011;71097;44.760;37.726;2023-11-18T11:54:52;5.55;;;3.25;;
79025;SDS011;71097;44.760;37.726;2023-11-18T11:56:13;8.02;;;3.20;;
79025;SDS011;71097;44.760;37.726;2023-11-18T11:57:22;6.40;;;3.33;;
79025;SDS011;71097;44.760;37.726;2023-11-18T11:58:29;8.18;;;3.78;;
79025;SDS011;71097;44.760;37.726;2023-11-18T11:59:35;6.72;;;2.83;;
79025;SDS011;71097;44.760;37.726;2023-11-18T12:01:16;6.80;;;3.17;;
79025;SDS011;71097;44.760;37.726;2023-11-18T12:02:36;8.30;;;3.33;;
79025;SDS011;71097;44.760;37.726;2023-11-18T12:03:41;5.85;;;3.67;;
79025;SDS011;71097;44.760;37.726;2023-11-18T12:31:39;6.13;;;2.58;;
79025;SDS011;71097;44.760;37.726;2023-11-18T12:34:02;4.88;;;2.47;;
79025;SDS011;71097;44.760;37.726;2023-11-18T12:35:06;5.20;;;3.13;;
79025;SDS011;71097;44.760;37.726;2023-11-18T12:40:02;6.78;;;3.20;;
79025;SDS011;71097;44.760;37.726;2023-11-18T12:41:36;5.97;;;2.92;;
79025;SDS011;71097;44.760;37.726;2023-11-18T12:43:00;8.32;;;2.90;;
79025;SDS011;71097;44.760;37.726;2023-11-18T12:57:10;5.55;;;2.97;;
79025;SDS011;71097;44.760;37.726;2023-11-18T12:58:15;7.60;;;3.45;;
79025;SDS011;71097;44.760;37.726;2023-11-18T12:59:19;5.90;;;2.33;;
79025;SDS011;71097;44.760;37.726;2023-11-18T13:00:25;5.10;;;2.63;;
79025;SDS011;71097;44.760;37.726;2023-11-18T13:01:35;4.70;;;2.70;;
79025;SDS011;71097;44.760;37.726;2023-11-18T13:02:42;5.88;;;2.60;;
79025;SDS011;71097;44.760;37.726;2023-11-18T13:03:44;7.65;;;2.97;;
79025;SDS011;71097;44.760;37.726;2023-11-18T13:04:46;6.15;;;3.08;;
79025;SDS011;71097;44.760;37.726;2023-11-18T13:05:48;7.18;;;3.42;;
79025;SDS011;71097;44.760;37.726;2023-11-18T13:06:51;6.85;;;3.05;;
79025;SDS011;71097;44.760;37.726;2023-11-18T13:07:54;5.88;;;2.75;;
79025;SDS011;71097;44.760;37.726;2023-11-18T13:08:56;6.18;;;2.60;;
79025;SDS011;71097;44.760;37.726;2023-11-18T13:09:59;6.13;;;3.03;;
79025;SDS011;71097;44.760;37.726;2023-11-18T13:11:01;6.13;;;2.53;;
79025;SDS011;71097;44.760;37.726;2023-11-18T13:12:05;6.32;;;3.33;;
79025;SDS011;71097;44.760;37.726;2023-11-18T13:13:10;5.35;;;3.00;;
79025;SDS011;71097;44.760;37.726;2023-11-18T13:14:15;5.60;;;3.10;;
79025;SDS011;71097;44.760;37.726;2023-11-18T13:15:18;4.72;;;3.13;;
79025;SDS011;71097;44.760;37.726;2023-11-18T13:16:20;6.03;;;3.10;;
79025;SDS011;71097;44.760;37.726;2023-11-18T13:17:22;6.55;;;2.97;;
79025;SDS011;71097;44.760;37.726;2023-11-18T13:18:24;5.90;;;2.90;;
79025;SDS011;71097;44.760;37.726;2023-11-18T13:19:28;5.35;;;2.72;;
79025;SDS011;71097;44.760;37.726;2023-11-18T13:20:30;5.68;;;3.13;;
79025;SDS011;71097;44.760;37.726;2023-11-18T13:21:34;6.00;;;3.33;;
79025;SDS011;71097;44.760;37.726;2023-11-18T13:22:37;7.88;;;2.92;;
79025;SDS011;71097;44.760;37.726;2023-11-18T13:25:12;6.00;;;2.97;;
79025;SDS011;71097;44.760;37.726;2023-11-18T13:26:18;4.72;;;2.97;;
79025;SDS011;71097;44.760;37.726;2023-11-18T13:27:38;4.85;;;2.70;;
79025;SDS011;71097;44.760;37.726;2023-11-18T13:28:51;5.85;;;2.88;;
79025;SDS011;71097;44.760;37.726;2023-11-18T13:29:56;5.50;;;3.15;;
79025;SDS011;71097;44.760;37.726;2023-11-18T13:30:58;5.03;;;2.72;;
79025;SDS011;71097;44.760;37.726;2023-11-18T13:32:14;6.90;;;2.92;;
79025;SDS011;71097;44.760;37.726;2023-11-18T13:35:45;7.05;;;3.10;;
79025;SDS011;71097;44.760;37.726;2023-11-18T13:37:19;7.22;;;2.92;;
79025;SDS011;71097;44.760;37.726;2023-11-18T16:05:42;9.77;;;6.40;;
79025;SDS011;71097;44.760;37.726;2023-11-18T16:06:44;9.23;;;5.75;;
79025;SDS011;71097;44.760;37.726;2023-11-18T16:07:47;11.15;;;6.70;;
79025;SDS011;71097;44.760;37.726;2023-11-18T16:08:53;7.65;;;5.18;;
79025;SDS011;71097;44.760;37.726;2023-11-18T16:09:58;11.45;;;7.28;;
79025;SDS011;71097;44.760;37.726;2023-11-18T16:11:00;8.05;;;5.95;;
79025;SDS011;71097;44.760;37.726;2023-11-18T16:12:03;13.43;;;7.22;;
79025;SDS011;71097;44.760;37.726;2023-11-18T16:13:05;16.88;;;7.22;;
79025;SDS011;71097;44.760;37.726;2023-11-18T16:14:08;10.93;;;6.75;;
79025;SDS011;71097;44.760;37.726;2023-11-18T16:15:12;12.48;;;6.63;;
79025;SDS011;71097;44.760;37.726;2023-11-18T16:16:15;9.57;;;6.53;;
79025;SDS011;71097;44.760;37.726;2023-11-18T16:17:17;9.52;;;5.90;;
79025;SDS011;71097;44.760;37.726;2023-11-18T16:18:22;10.63;;;6.85;;
79025;SDS011;71097;44.760;37.726;2023-11-18T16:19:32;10.40;;;6.63;;
79025;SDS011;71097;44.760;37.726;2023-11-18T16:20:35;9.68;;;6.65;;
79025;SDS011;71097;44.760;37.726;2023-11-18T16:21:41;10.25;;;6.40;;
79025;SDS011;71097;44.760;37.726;2023-11-18T16:22:52;8.75;;;5.40;;
79025;SDS011;71097;44.760;37.726;2023-11-18T16:23:57;9.82;;;6.45;;
79025;SDS011;71097;44.760;37.726;2023-11-18T16:24:59;9.25;;;6.15;;
79025;SDS011;71097;44.760;37.726;2023-11-18T16:26:01;10.15;;;6.97;;
79025;SDS011;71097;44.760;37.726;2023-11-18T16:27:05;10.18;;;6.20;;
79025;SDS011;71097;44.760;37.726;2023-11-18T16:28:12;8.65;;;5.82;;
79025;SDS011;71097;44.760;37.726;2023-11-18T16:29:14;10.10;;;5.97;;
79025;SDS011;71097;44.760;37.726;2023-11-18T16:30:16;8.45;;;6.07;;
79025;SDS011;71097;44.760;37.726;2023-11-18T16:31:23;11.93;;;5.30;;
79025;SDS011;71097;44.760;37.726;2023-11-18T16:32:27;10.73;;;7.25;;
79025;SDS011;71097;44.760;37.726;2023-11-18T16:33:29;10.23;;;7.47;;
79025;SDS011;71097;44.760;37.726;2023-11-18T16:34:30;9.30;;;6.35;;
79025;SDS011;71097;44.760;37.726;2023-11-18T16:35:32;9.95;;;6.57;;
79025;SDS011;71097;44.760;37.726;2023-11-18T16:36:34;8.77;;;5.93;;
79025;SDS011;71097;44.760;37.726;2023-11-18T16:37:35;10.52;;;6.68;;
79025;SDS011;71097;44.760;37.726;2023-11-18T16:38:37;10.55;;;6.97;;
79025;SDS011;71097;44.760;37.726;2023-11-18T16:39:38;11.75;;;6.22;;
79025;SDS011;71097;44.760;37.726;2023-11-18T16:40:40;10.70;;;6.80;;
79025;SDS011;71097;44.760;37.726;2023-11-18T16:41:42;8.93;;;5.35;;
79025;SDS011;71097;44.760;37.726;2023-11-18T16:42:44;10.57;;;6.32;;
79025;SDS011;71097;44.760;37.726;2023-11-18T16:43:49;9.80;;;6.55;;
79025;SDS011;71097;44.760;37.726;2023-11-18T16:44:52;9.50;;;6.03;;
79025;SDS011;71097;44.760;37.726;2023-11-18T16:45:54;10.77;;;7.13;;
79025;SDS011;71097;44.760;37.726;2023-11-18T16:46:55;10.60;;;6.95;;
79025;SDS011;71097;44.760;37.726;2023-11-18T16:47:57;10.05;;;7.07;;
79025;SDS011;71097;44.760;37.726;2023-11-18T16:49:01;9.55;;;6.20;;
79025;SDS011;71097;44.760;37.726;2023-11-18T16:50:03;10.88;;;6.68;;
79025;SDS011;71097;44.760;37.726;2023-11-18T16:51:05;10.55;;;7.03;;
79025;SDS011;71097;44.760;37.726;2023-11-18T16:52:07;12.60;;;7.00;;
79025;SDS011;71097;44.760;37.726;2023-11-18T16:53:09;9.68;;;6.82;;
79025;SDS011;71097;44.760;37.726;2023-11-18T16:54:11;9.60;;;7.15;;
79025;SDS011;71097;44.760;37.726;2023-11-18T16:55:13;11.10;;;6.82;;
79025;SDS011;71097;44.760;37.726;2023-11-18T16:56:15;9.55;;;6.22;;
79025;SDS011;71097;44.760;37.726;2023-11-18T16:57:20;11.32;;;6.97;;
79025;SDS011;71097;44.760;37.726;2023-11-18T16:58:31;10.27;;;7.32;;
79025;SDS011;71097;44.760;37.726;2023-11-18T16:59:33;10.20;;;6.22;;
79025;SDS011;71097;44.760;37.726;2023-11-18T17:00:34;10.02;;;7.70;;
79025;SDS011;71097;44.760;37.726;2023-11-18T17:01:37;10.63;;;6.88;;
79025;SDS011;71097;44.760;37.726;2023-11-18T17:02:39;9.75;;;6.47;;
79025;SDS011;71097;44.760;37.726;2023-11-18T17:03:41;11.20;;;7.20;;
79025;SDS011;71097;44.760;37.726;2023-11-18T17:04:42;9.88;;;6.93;;
79025;SDS011;71097;44.760;37.726;2023-11-18T17:05:45;11.57;;;6.15;;
79025;SDS011;71097;44.760;37.726;2023-11-18T17:06:47;10.93;;;6.97;;
79025;SDS011;71097;44.760;37.726;2023-11-18T17:07:48;7.78;;;5.53;;
79025;SDS011;71097;44.760;37.726;2023-11-18T17:08:50;9.52;;;6.13;;
79025;SDS011;71097;44.760;37.726;2023-11-18T17:09:51;12.35;;;7.20;;
79025;SDS011;71097;44.760;37.726;2023-11-18T17:10:53;9.50;;;6.65;;
79025;SDS011;71097;44.760;37.726;2023-11-18T17:11:54;10.60;;;6.75;;
79025;SDS011;71097;44.760;37.726;2023-11-18T17:12:56;10.02;;;6.28;;
79025;SDS011;71097;44.760;37.726;2023-11-18T17:13:58;8.18;;;6.10;;
79025;SDS011;71097;44.760;37.726;2023-11-18T17:15:00;10.88;;;7.40;;
79025;SDS011;71097;44.760;37.726;2023-11-18T17:16:02;8.25;;;5.05;;
79025;SDS011;71097;44.760;37.726;2023-11-18T17:17:03;9.13;;;6.70;;
79025;SDS011;71097;44.760;37.726;2023-11-18T17:18:05;11.43;;;6.20;;
79025;SDS011;71097;44.760;37.726;2023-11-18T17:19:07;10.88;;;7.28;;
79025;SDS011;71097;44.760;37.726;2023-11-18T17:20:10;9.18;;;6.35;;
79025;SDS011;71097;44.760;37.726;2023-11-18T17:21:15;8.38;;;5.70;;
79025;SDS011;71097;44.760;37.726;2023-11-18T17:22:16;11.05;;;7.05;;